Time;durP1;ratioP1;P1;durP2;ratioP2;P2;SDS_P1;SDS_P2;PMS_P1;PMS_P2;Temp;Humidity;BMP_temperature;BMP_pressure;BME280_temperature;BME280_humidity;BME280_pressure;Samples;Min_cycle;Max_cycle;Signal;HPM_P1;HPM_P2
2023/03/24 00:00:51;;;;;;;10.35;3.85;;;11.70;99.90;;;;;;5050535;28;20411;-64
2023/03/24 00:03:16;;;;;;;11.25;3.55;;;11.70;99.90;;;;;;5049761;28;20546;-64
2023/03/24 00:05:43;;;;;;;9.32;3.80;;;11.70;99.90;;;;;;5051213;28;20524;-64
2023/03/24 00:08:09;;;;;;;8.48;3.88;;;11.70;99.90;;;;;;5052036;28;20075;-64
2023/03/24 00:10:35;;;;;;;8.10;3.40;;;11.70;99.90;;;;;;5049971;28;20084;-64
2023/03/24 00:13:02;;;;;;;7.35;3.47;;;11.70;99.90;;;;;;5050121;28;20112;-64
2023/03/24 00:15:27;;;;;;;5.07;3.10;;;11.70;99.90;;;;;;5050639;28;20047;-64
2023/03/24 00:17:56;;;;;;;7.75;3.33;;;11.70;99.90;;;;;;5051832;28;20401;-65
2023/03/24 00:20:24;;;;;;;11.20;3.63;;;11.70;99.90;;;;;;5050756;28;20116;-64
2023/03/24 00:22:57;;;;;;;8.48;3.70;;;11.70;99.90;;;;;;5049742;28;20049;-65
2023/03/24 00:25:26;;;;;;;6.63;3.30;;;11.70;99.90;;;;;;5050554;28;20045;-64
2023/03/24 00:27:53;;;;;;;7.57;3.13;;;11.70;99.90;;;;;;5049776;28;20127;-64
2023/03/24 00:30:19;;;;;;;7.70;3.78;;;11.70;99.90;;;;;;5049373;28;20045;-65
2023/03/24 00:32:45;;;;;;;7.38;3.63;;;11.60;99.90;;;;;;5048745;28;20041;-65
2023/03/24 00:35:15;;;;;;;9.32;3.92;;;11.60;99.90;;;;;;5051683;28;20037;-65
2023/03/24 00:37:41;;;;;;;11.98;3.53;;;11.60;99.90;;;;;;5050919;28;20037;-65
2023/03/24 00:40:16;;;;;;;8.98;3.50;;;11.60;99.90;;;;;;5051364;28;20048;-65
2023/03/24 00:42:44;;;;;;;7.60;3.30;;;11.60;99.90;;;;;;5042900;28;20041;-65
2023/03/24 00:45:13;;;;;;;9.57;3.78;;;11.60;99.90;;;;;;5050220;28;20133;-65
2023/03/24 00:47:39;;;;;;;7.13;3.72;;;11.60;99.90;;;;;;5050959;28;20091;-64
2023/03/24 00:50:08;;;;;;;10.00;3.90;;;11.60;99.90;;;;;;5049568;28;20049;-65
2023/03/24 00:52:34;;;;;;;8.73;3.45;;;11.60;99.90;;;;;;5054259;28;20044;-64
2023/03/24 00:55:01;;;;;;;9.70;3.95;;;11.60;99.90;;;;;;5055364;28;20041;-65
2023/03/24 00:57:28;;;;;;;6.43;3.38;;;11.60;99.90;;;;;;5052739;28;20037;-64
2023/03/24 00:59:56;;;;;;;8.30;3.03;;;11.60;99.90;;;;;;5053263;28;20071;-64
2023/03/24 01:02:26;;;;;;;7.20;3.38;;;11.60;99.90;;;;;;5054658;28;20036;-63
2023/03/24 01:05:00;;;;;;;9.77;3.78;;;11.60;99.90;;;;;;5054846;28;20665;-64
2023/03/24 01:07:28;;;;;;;7.50;3.35;;;11.60;99.90;;;;;;5054033;28;20045;-63
2023/03/24 01:09:59;;;;;;;8.00;3.92;;;11.60;99.90;;;;;;5053951;28;20095;-64
2023/03/24 01:12:33;;;;;;;7.75;3.63;;;11.60;99.90;;;;;;5053640;28;20074;-64
2023/03/24 01:15:01;;;;;;;6.75;3.50;;;11.50;99.90;;;;;;5055187;28;20070;-65
2023/03/24 01:17:28;;;;;;;7.22;2.88;;;11.60;99.90;;;;;;5052557;28;20059;-65
2023/03/24 01:19:54;;;;;;;8.77;3.38;;;11.60;99.90;;;;;;5052649;28;20510;-65
2023/03/24 01:22:21;;;;;;;5.35;3.20;;;11.60;99.90;;;;;;5052371;28;20041;-65
2023/03/24 01:24:47;;;;;;;6.95;2.95;;;11.60;99.90;;;;;;5048191;28;20120;-65
2023/03/24 01:27:13;;;;;;;8.00;3.45;;;11.60;99.90;;;;;;5052661;28;20082;-65
2023/03/24 01:29:40;;;;;;;8.98;3.63;;;11.60;99.90;;;;;;5054267;28;20041;-65
2023/03/24 01:32:06;;;;;;;5.88;3.63;;;11.60;99.90;;;;;;5053487;28;20033;-65
2023/03/24 01:34:32;;;;;;;8.85;3.53;;;11.60;99.90;;;;;;5054720;28;20039;-65
2023/03/24 01:36:59;;;;;;;7.68;3.08;;;11.60;99.90;;;;;;5052205;28;20037;-65
2023/03/24 01:39:25;;;;;;;5.20;3.20;;;11.60;99.90;;;;;;5054149;28;20522;-65
2023/03/24 01:41:50;;;;;;;5.45;3.50;;;11.60;99.90;;;;;;5051756;28;20041;-65
2023/03/24 01:44:36;;;;;;;6.32;3.67;;;11.60;99.90;;;;;;5054320;28;20098;-65
2023/03/24 01:47:05;;;;;;;6.35;3.70;;;11.60;99.90;;;;;;5052920;28;20094;-65
2023/03/24 01:49:45;;;;;;;5.68;3.55;;;11.60;99.90;;;;;;5053075;28;20045;-65
2023/03/24 01:52:25;;;;;;;7.93;3.72;;;11.60;99.90;;;;;;5053441;28;20048;-65
2023/03/24 01:55:01;;;;;;;6.95;3.67;;;11.60;99.90;;;;;;5054333;28;20459;-64
2023/03/24 01:57:34;;;;;;;5.75;3.40;;;11.70;99.90;;;;;;5050173;28;20044;-64
2023/03/24 02:00:04;;;;;;;6.78;3.78;;;11.60;99.90;;;;;;5053985;28;20036;-64
2023/03/24 02:02:33;;;;;;;5.03;3.80;;;11.70;99.90;;;;;;5050934;28;20071;-64
2023/03/24 02:05:03;;;;;;;6.30;3.70;;;11.70;99.90;;;;;;5053921;28;20502;-64
2023/03/24 02:07:55;;;;;;;6.65;3.53;;;11.70;99.90;;;;;;5052339;28;20033;-64
2023/03/24 02:10:22;;;;;;;5.55;3.70;;;11.70;99.90;;;;;;5029608;28;20061;-64
2023/03/24 02:12:47;;;;;;;6.53;4.35;;;11.70;99.90;;;;;;5051813;28;20044;-64
2023/03/24 02:15:16;;;;;;;6.30;3.95;;;11.70;99.90;;;;;;5050901;28;20044;-65
2023/03/24 02:17:56;;;;;;;7.05;4.00;;;11.70;99.90;;;;;;5053600;28;20045;-64
2023/03/24 02:20:40;;;;;;;5.82;3.35;;;11.70;99.90;;;;;;5053208;28;20422;-65
2023/03/24 02:23:34;;;;;;;7.50;3.63;;;11.80;99.90;;;;;;5052815;28;20131;-65
2023/03/24 02:26:26;;;;;;;7.07;3.28;;;11.80;99.90;;;;;;5049772;28;20067;-65
2023/03/24 02:29:27;;;;;;;6.18;3.95;;;11.80;99.90;;;;;;5051714;28;20060;-64
2023/03/24 02:31:58;;;;;;;5.22;3.67;;;11.80;99.90;;;;;;5023382;28;20049;-65
2023/03/24 02:34:53;;;;;;;6.28;3.30;;;11.80;99.90;;;;;;5053794;28;20045;-64
2023/03/24 02:37:52;;;;;;;6.05;3.72;;;11.90;99.90;;;;;;5052981;28;20417;-64
2023/03/24 02:40:33;;;;;;;5.65;3.85;;;11.80;99.90;;;;;;4996571;28;20045;-65
2023/03/24 02:43:22;;;;;;;6.05;3.25;;;11.90;99.90;;;;;;5051698;28;20041;-64
2023/03/24 02:46:23;;;;;;;7.72;3.85;;;11.90;99.90;;;;;;5046969;28;20041;-64
2023/03/24 02:49:04;;;;;;;8.07;4.22;;;11.90;99.90;;;;;;5035583;28;20106;-65
2023/03/24 02:52:02;;;;;;;6.03;4.00;;;11.90;99.90;;;;;;5051584;28;20090;-65
2023/03/24 02:54:52;;;;;;;5.13;3.83;;;11.90;99.90;;;;;;5051376;28;20553;-65
2023/03/24 02:57:35;;;;;;;6.47;3.80;;;11.90;99.90;;;;;;5052193;28;20033;-64
2023/03/24 03:00:08;;;;;;;4.88;3.60;;;12.00;99.90;;;;;;5052244;28;20052;-65
2023/03/24 03:02:40;;;;;;;6.20;3.47;;;11.90;99.90;;;;;;5050319;28;20037;-65
2023/03/24 03:05:13;;;;;;;5.38;3.80;;;12.00;99.90;;;;;;5050579;28;20053;-65
2023/03/24 03:07:40;;;;;;;7.53;3.90;;;11.90;99.90;;;;;;5044302;28;20087;-65
2023/03/24 03:10:14;;;;;;;7.57;4.55;;;12.00;99.90;;;;;;5050311;28;20123;-64
2023/03/24 03:12:43;;;;;;;6.72;3.90;;;12.00;99.90;;;;;;5051615;28;20033;-64
2023/03/24 03:15:22;;;;;;;8.85;4.00;;;12.00;99.90;;;;;;5051885;28;20036;-64
2023/03/24 03:18:01;;;;;;;4.63;3.90;;;11.90;99.90;;;;;;5045491;28;20041;-64
2023/03/24 03:20:33;;;;;;;7.90;4.03;;;12.00;99.90;;;;;;5051640;28;20041;-64
2023/03/24 03:23:05;;;;;;;5.40;3.83;;;12.00;99.90;;;;;;5049907;28;20052;-64
2023/03/24 03:25:41;;;;;;;5.13;3.53;;;12.00;99.90;;;;;;5050179;28;20032;-65
2023/03/24 03:28:10;;;;;;;4.40;3.50;;;12.00;99.90;;;;;;5051644;28;20033;-64
2023/03/24 03:30:44;;;;;;;4.70;3.80;;;12.00;99.90;;;;;;5051502;28;20140;-64
2023/03/24 03:33:23;;;;;;;5.90;3.55;;;12.00;99.90;;;;;;5052689;28;20071;-65
2023/03/24 03:36:05;;;;;;;4.32;3.50;;;12.00;99.90;;;;;;5051335;28;20082;-66
2023/03/24 03:38:35;;;;;;;6.15;3.88;;;12.00;99.90;;;;;;5049917;28;20501;-64
2023/03/24 03:41:03;;;;;;;4.90;3.45;;;12.00;99.90;;;;;;5051805;28;20048;-64
2023/03/24 03:43:30;;;;;;;6.55;3.63;;;12.00;99.90;;;;;;5050950;28;20072;-64
2023/03/24 03:45:58;;;;;;;5.45;3.80;;;12.00;99.90;;;;;;5051412;28;20437;-63
2023/03/24 03:48:26;;;;;;;6.65;3.25;;;12.00;99.90;;;;;;5051562;28;20059;-64
2023/03/24 03:50:53;;;;;;;4.63;2.90;;;12.10;99.90;;;;;;5051485;28;20082;-65
2023/03/24 03:53:23;;;;;;;6.18;3.45;;;12.10;99.90;;;;;;5048786;28;20554;-65
2023/03/24 03:55:49;;;;;;;5.40;3.63;;;12.10;99.90;;;;;;5053083;28;20115;-65
2023/03/24 03:58:15;;;;;;;3.55;2.70;;;12.10;99.90;;;;;;5050328;28;20112;-64
2023/03/24 04:00:43;;;;;;;3.33;2.90;;;12.10;99.90;;;;;;5050089;28;20402;-64
2023/03/24 04:03:45;;;;;;;4.50;2.90;;;12.10;99.90;;;;;;5044778;28;20041;-65
2023/03/24 04:06:36;;;;;;;6.38;2.50;;;12.10;99.90;;;;;;5047729;28;20047;-64
2023/03/24 04:09:50;;;;;;;4.85;1.50;;;12.10;99.90;;;;;;5051810;28;20052;-63
2023/03/24 04:12:30;;;;;;;3.85;2.00;;;12.00;99.90;;;;;;5037491;28;20052;-63
2023/03/24 04:15:18;;;;;;;2.97;1.57;;;11.90;99.90;;;;;;5051838;28;20129;-63
2023/03/24 04:18:11;;;;;;;5.00;1.50;;;11.80;99.90;;;;;;5051461;28;20291;-63
2023/03/24 04:20:46;;;;;;;4.30;2.00;;;11.70;99.90;;;;;;5041899;28;20119;-63
2023/03/24 04:23:55;;;;;;;6.93;2.05;;;11.60;99.90;;;;;;5047214;28;20041;-63
2023/03/24 04:26:45;;;;;;;7.40;2.13;;;11.50;99.90;;;;;;5019518;28;20155;-63
2023/03/24 04:29:19;;;;;;;4.68;1.90;;;11.50;99.90;;;;;;5050721;28;20083;-63
2023/03/24 04:31:52;;;;;;;4.70;1.90;;;11.40;99.90;;;;;;5050624;28;20069;-63
2023/03/24 04:34:40;;;;;;;7.10;2.28;;;11.40;99.90;;;;;;5051258;28;20041;-63
2023/03/24 04:37:16;;;;;;;4.45;2.40;;;11.30;99.90;;;;;;5046782;28;20072;-63
2023/03/24 04:39:46;;;;;;;4.32;1.95;;;11.30;99.90;;;;;;5050377;28;20048;-63
2023/03/24 04:42:20;;;;;;;7.22;2.00;;;11.30;99.90;;;;;;5048791;28;20119;-63
2023/03/24 04:44:50;;;;;;;7.43;1.67;;;11.20;99.90;;;;;;5051497;28;20045;-63
2023/03/24 04:47:18;;;;;;;5.90;1.65;;;11.20;99.90;;;;;;5050946;28;20037;-63
2023/03/24 04:49:44;;;;;;;5.13;1.73;;;11.10;99.90;;;;;;5049271;28;20072;-62
2023/03/24 04:52:10;;;;;;;6.40;1.60;;;11.00;99.90;;;;;;5037583;28;20079;-63
2023/03/24 04:54:35;;;;;;;4.28;1.25;;;11.00;99.90;;;;;;5041802;28;20052;-63
2023/03/24 04:57:01;;;;;;;5.70;1.70;;;11.00;99.90;;;;;;5049633;28;20035;-63
2023/03/24 04:59:28;;;;;;;5.85;1.73;;;10.90;99.90;;;;;;5048722;28;20487;-63
2023/03/24 05:01:53;;;;;;;6.93;1.75;;;10.90;99.90;;;;;;5038668;28;20037;-63
2023/03/24 05:04:24;;;;;;;6.97;2.00;;;10.90;99.90;;;;;;5041957;28;20048;-63
2023/03/24 05:06:49;;;;;;;10.45;2.22;;;10.90;99.90;;;;;;5084001;22;20052;-61
2023/03/24 05:09:16;;;;;;;5.55;2.03;;;10.90;99.90;;;;;;5090556;28;20040;-61
2023/03/24 05:11:43;;;;;;;5.65;1.83;;;10.80;99.90;;;;;;5089448;28;20111;-61
2023/03/24 05:14:08;;;;;;;9.02;2.40;;;10.80;99.90;;;;;;5098594;28;20123;-61
2023/03/24 05:16:34;;;;;;;8.77;2.58;;;10.80;99.90;;;;;;5076897;28;20068;-61
2023/03/24 05:19:00;;;;;;;8.48;2.15;;;10.80;99.90;;;;;;5071095;28;20045;-61
2023/03/24 05:21:26;;;;;;;5.75;2.20;;;10.80;99.90;;;;;;5060819;28;20040;-61
2023/03/24 05:23:52;;;;;;;9.70;2.42;;;10.80;99.90;;;;;;5064212;28;20501;-61
2023/03/24 05:26:18;;;;;;;11.60;2.85;;;10.70;99.90;;;;;;5061816;28;20060;-62
2023/03/24 05:28:43;;;;;;;10.05;2.20;;;10.80;99.90;;;;;;5065554;28;20121;-61
2023/03/24 05:31:09;;;;;;;8.55;2.78;;;10.70;99.90;;;;;;5060638;28;20033;-61
2023/03/24 05:33:35;;;;;;;9.68;2.55;;;10.70;99.90;;;;;;5064231;28;20537;-61
2023/03/24 05:36:00;;;;;;;8.07;2.72;;;10.70;99.90;;;;;;5062333;28;20086;-61
2023/03/24 05:38:26;;;;;;;8.90;2.60;;;10.70;99.90;;;;;;5071410;28;20131;-61
2023/03/24 05:40:58;;;;;;;8.95;2.30;;;10.70;99.90;;;;;;5073244;28;20071;-61
2023/03/24 05:43:23;;;;;;;9.48;2.30;;;10.60;99.90;;;;;;5074333;28;20050;-61
2023/03/24 05:45:49;;;;;;;9.18;2.08;;;10.60;99.90;;;;;;5074595;28;20076;-61
2023/03/24 05:48:15;;;;;;;8.57;1.95;;;10.50;99.90;;;;;;5071071;28;20036;-61
2023/03/24 05:50:40;;;;;;;6.43;2.03;;;10.50;99.90;;;;;;5064522;28;20040;-61
2023/03/24 05:53:06;;;;;;;8.95;2.35;;;10.50;99.90;;;;;;5067028;28;20033;-62
2023/03/24 05:55:31;;;;;;;7.05;1.60;;;10.40;99.90;;;;;;5065385;28;20028;-62
2023/03/24 05:58:00;;;;;;;10.00;1.98;;;10.40;99.90;;;;;;5063470;28;20631;-62
2023/03/24 06:00:27;;;;;;;8.15;2.30;;;10.40;99.90;;;;;;5080036;28;20044;-62
2023/03/24 06:02:53;;;;;;;8.98;1.85;;;10.30;99.90;;;;;;5075948;28;20071;-62
2023/03/24 06:05:19;;;;;;;8.45;2.00;;;10.30;99.90;;;;;;5073563;28;20073;-62
2023/03/24 06:07:44;;;;;;;6.45;1.67;;;10.30;99.90;;;;;;5073234;28;20040;-62
2023/03/24 06:10:13;;;;;;;6.78;2.17;;;10.30;99.90;;;;;;5072877;28;20048;-62
2023/03/24 06:12:39;;;;;;;7.70;2.20;;;10.30;99.90;;;;;;5073164;28;20033;-62
2023/03/24 06:15:06;;;;;;;10.25;2.10;;;10.30;99.90;;;;;;5070052;28;20043;-62
2023/03/24 06:17:32;;;;;;;12.18;2.20;;;10.30;99.90;;;;;;5073905;28;20561;-62
2023/03/24 06:20:04;;;;;;;8.50;2.63;;;10.30;99.90;;;;;;5072591;28;20123;-62
2023/03/24 06:22:33;;;;;;;10.45;2.42;;;10.30;99.90;;;;;;5072063;28;20493;-61
2023/03/24 06:24:59;;;;;;;10.70;1.98;;;10.30;99.90;;;;;;5066398;28;21970;-61
2023/03/24 06:27:29;;;;;;;7.13;2.05;;;10.30;99.90;;;;;;5067416;28;20051;-61
2023/03/24 06:29:58;;;;;;;10.25;2.40;;;10.30;99.90;;;;;;5067093;28;20052;-61
2023/03/24 06:32:25;;;;;;;11.35;2.40;;;10.40;99.90;;;;;;5072047;28;20087;-61
2023/03/24 06:34:51;;;;;;;9.38;2.38;;;10.40;99.90;;;;;;5061559;28;20044;-61
2023/03/24 06:37:18;;;;;;;8.43;2.20;;;10.40;99.90;;;;;;5063850;28;20033;-62
2023/03/24 06:39:44;;;;;;;9.32;2.25;;;10.50;99.90;;;;;;5067260;28;20102;-61
2023/03/24 06:42:10;;;;;;;10.10;2.03;;;10.50;99.90;;;;;;5069216;28;20036;-61
2023/03/24 06:44:36;;;;;;;10.38;2.30;;;10.50;99.90;;;;;;5065032;28;20032;-62
2023/03/24 06:47:01;;;;;;;9.68;2.30;;;10.50;99.90;;;;;;5062414;28;20082;-61
2023/03/24 06:49:27;;;;;;;8.85;1.80;;;10.50;99.90;;;;;;5068725;28;20055;-61
2023/03/24 06:51:53;;;;;;;8.23;2.00;;;10.50;99.90;;;;;;5066701;28;20090;-62
2023/03/24 06:54:18;;;;;;;6.32;2.25;;;10.50;99.90;;;;;;5064351;28;20040;-62
2023/03/24 06:56:44;;;;;;;9.30;2.00;;;10.50;99.90;;;;;;5066882;28;20473;-62
2023/03/24 06:59:09;;;;;;;10.32;2.22;;;10.50;99.90;;;;;;5067603;28;20567;-62
2023/03/24 07:01:36;;;;;;;13.25;2.92;;;10.60;99.90;;;;;;5072613;28;20043;-62
2023/03/24 07:04:02;;;;;;;11.10;2.38;;;10.60;99.90;;;;;;5071982;28;20051;-62
2023/03/24 07:06:32;;;;;;;8.52;2.53;;;10.60;99.90;;;;;;5072326;28;20029;-62
2023/03/24 07:08:58;;;;;;;7.18;2.05;;;10.70;99.90;;;;;;5070429;28;20076;-62
2023/03/24 07:11:24;;;;;;;12.23;2.65;;;10.70;99.90;;;;;;5072208;28;20040;-62
2023/03/24 07:13:49;;;;;;;12.27;2.63;;;10.70;99.90;;;;;;5069620;28;20033;-62
2023/03/24 07:16:15;;;;;;;10.65;2.40;;;10.70;99.90;;;;;;5067276;28;20036;-61
2023/03/24 07:18:40;;;;;;;14.05;2.88;;;10.70;99.90;;;;;;5070454;28;20088;-61
2023/03/24 07:21:07;;;;;;;7.88;2.00;;;10.70;99.90;;;;;;5062535;28;20029;-61
2023/03/24 07:23:32;;;;;;;14.20;2.30;;;10.70;99.90;;;;;;5069251;28;20063;-62
2023/03/24 07:25:58;;;;;;;13.75;2.45;;;10.80;99.90;;;;;;5070975;28;20041;-61
2023/03/24 07:28:24;;;;;;;10.25;2.20;;;10.80;99.90;;;;;;5071336;28;20045;-62
2023/03/24 07:30:50;;;;;;;17.50;2.83;;;10.80;99.90;;;;;;5069514;28;20045;-62
2023/03/24 07:33:15;;;;;;;12.00;2.47;;;10.80;99.90;;;;;;5072327;28;20040;-62
2023/03/24 07:35:42;;;;;;;10.50;2.60;;;10.90;99.90;;;;;;5066496;28;20028;-62
2023/03/24 07:38:07;;;;;;;14.48;2.72;;;10.90;99.90;;;;;;5069488;28;20036;-62
2023/03/24 07:40:36;;;;;;;14.32;2.80;;;10.90;99.90;;;;;;5070692;28;20036;-62
2023/03/24 07:43:06;;;;;;;15.30;3.00;;;11.00;99.90;;;;;;5071741;28;20397;-62
2023/03/24 07:45:32;;;;;;;10.87;2.53;;;11.00;99.90;;;;;;5065310;28;20406;-62
2023/03/24 07:48:00;;;;;;;12.43;3.10;;;11.10;99.90;;;;;;5067935;28;20051;-62
2023/03/24 07:50:27;;;;;;;17.85;3.13;;;11.10;99.90;;;;;;5070040;28;20047;-62
2023/03/24 07:52:53;;;;;;;16.75;3.00;;;11.10;99.90;;;;;;5070481;28;20036;-62
2023/03/24 07:55:19;;;;;;;20.73;3.08;;;11.10;99.90;;;;;;5068510;28;20033;-62
2023/03/24 07:57:46;;;;;;;20.27;2.97;;;11.10;99.90;;;;;;5069992;28;20082;-61
2023/03/24 08:00:16;;;;;;;15.07;3.55;;;11.10;99.90;;;;;;5063219;28;20248;-62
2023/03/24 08:02:47;;;;;;;16.48;2.95;;;11.10;99.90;;;;;;5064154;28;20039;-61
2023/03/24 08:05:14;;;;;;;17.52;3.03;;;11.10;99.90;;;;;;5068568;28;20037;-62
2023/03/24 08:07:41;;;;;;;15.15;3.40;;;11.00;99.90;;;;;;5069561;28;20037;-62
2023/03/24 08:10:08;;;;;;;19.65;3.38;;;11.00;99.90;;;;;;5070485;28;20040;-62
2023/03/24 08:12:34;;;;;;;17.30;3.38;;;11.00;99.90;;;;;;5064017;28;20048;-62
2023/03/24 08:15:00;;;;;;;12.60;2.45;;;11.10;99.90;;;;;;5075552;28;20192;-62
2023/03/24 08:17:25;;;;;;;15.68;3.35;;;11.20;99.90;;;;;;5067010;28;20128;-62
2023/03/24 08:19:51;;;;;;;12.82;3.22;;;11.30;99.90;;;;;;5078410;28;20044;-62
2023/03/24 08:22:16;;;;;;;11.77;3.03;;;11.30;99.90;;;;;;5069713;28;20045;-62
2023/03/24 08:24:42;;;;;;;17.92;3.25;;;11.30;99.90;;;;;;5069832;28;20135;-62
2023/03/24 08:27:07;;;;;;;19.20;3.35;;;11.40;99.90;;;;;;5069116;28;20375;-62
2023/03/24 08:29:33;;;;;;;15.32;3.35;;;11.40;99.90;;;;;;5069450;28;20074;-62
2023/03/24 08:32:00;;;;;;;18.42;3.40;;;11.40;99.90;;;;;;5071206;28;20047;-62
2023/03/24 08:34:26;;;;;;;20.35;3.67;;;11.40;99.90;;;;;;5071424;28;20028;-62
2023/03/24 08:36:52;;;;;;;15.30;3.17;;;11.40;99.90;;;;;;5070956;28;20106;-62
2023/03/24 08:39:19;;;;;;;12.52;2.88;;;11.50;99.90;;;;;;5071069;28;20055;-62
2023/03/24 08:41:45;;;;;;;15.68;3.40;;;11.50;99.90;;;;;;5070720;28;20375;-62
2023/03/24 08:44:11;;;;;;;15.77;3.47;;;11.50;99.90;;;;;;5069245;28;20222;-62
2023/03/24 08:46:37;;;;;;;14.18;3.13;;;11.50;99.90;;;;;;5069501;28;20036;-61
2023/03/24 08:49:03;;;;;;;14.90;3.13;;;11.60;99.90;;;;;;5068244;28;20115;-62
2023/03/24 08:51:30;;;;;;;14.55;3.13;;;11.70;99.90;;;;;;5070244;28;20124;-61
2023/03/24 08:53:55;;;;;;;17.30;2.85;;;11.80;99.90;;;;;;5068189;28;20064;-62
2023/03/24 08:56:21;;;;;;;18.05;3.20;;;12.00;99.90;;;;;;5066577;28;20137;-62
2023/03/24 08:58:47;;;;;;;12.00;2.80;;;12.20;99.90;;;;;;5069301;28;20082;-62
2023/03/24 09:01:13;;;;;;;16.25;3.65;;;12.20;99.90;;;;;;5069642;28;20032;-62
2023/03/24 09:03:40;;;;;;;18.50;2.83;;;12.30;99.90;;;;;;5070505;28;20116;-62
2023/03/24 09:06:06;;;;;;;13.90;2.53;;;12.30;99.90;;;;;;5070882;28;20033;-62
2023/03/24 09:08:31;;;;;;;15.48;3.00;;;12.50;99.90;;;;;;5068723;28;20607;-62
2023/03/24 09:10:57;;;;;;;15.35;3.13;;;12.50;99.90;;;;;;5073928;28;20040;-62
2023/03/24 09:13:23;;;;;;;12.45;2.90;;;12.50;99.90;;;;;;5073914;28;20033;-62
2023/03/24 09:15:52;;;;;;;14.82;3.05;;;12.50;99.90;;;;;;5074718;28;20036;-62
2023/03/24 09:18:19;;;;;;;14.38;3.05;;;12.40;99.90;;;;;;5073273;28;20052;-62
2023/03/24 09:20:45;;;;;;;7.82;2.70;;;12.20;99.90;;;;;;5065373;28;20041;-62
2023/03/24 09:23:11;;;;;;;10.52;2.85;;;12.10;99.90;;;;;;5070985;28;20080;-63
2023/03/24 09:25:37;;;;;;;10.25;2.08;;;12.20;99.90;;;;;;5073415;28;20469;-62
2023/03/24 09:28:03;;;;;;;18.45;2.90;;;12.30;99.90;;;;;;5073764;28;20116;-62
2023/03/24 09:30:29;;;;;;;13.60;2.95;;;12.40;99.90;;;;;;5074480;28;20045;-62
2023/03/24 09:32:57;;;;;;;14.05;2.97;;;12.60;99.90;;;;;;5074591;28;20044;-62
2023/03/24 09:35:24;;;;;;;14.43;2.90;;;12.80;99.90;;;;;;5073560;28;20043;-62
2023/03/24 09:37:50;;;;;;;14.80;2.63;;;13.00;99.90;;;;;;5068876;28;20546;-62
2023/03/24 09:40:23;;;;;;;16.38;3.17;;;13.10;99.90;;;;;;5071374;28;20120;-62
2023/03/24 09:43:06;;;;;;;15.82;2.58;;;13.20;99.90;;;;;;5072267;28;20032;-63
2023/03/24 09:45:41;;;;;;;10.50;2.05;;;13.30;99.90;;;;;;5071649;28;20044;-62
2023/03/24 09:48:12;;;;;;;16.00;2.75;;;13.30;99.90;;;;;;5073827;28;20040;-62
2023/03/24 09:50:52;;;;;;;11.55;2.63;;;13.20;99.90;;;;;;5066514;28;20032;-62
2023/03/24 09:53:39;;;;;;;12.82;2.85;;;13.20;99.90;;;;;;5073231;28;20120;-62
2023/03/24 09:56:15;;;;;;;12.30;2.28;;;13.40;99.90;;;;;;5073068;28;20059;-62
2023/03/24 09:58:44;;;;;;;11.77;2.38;;;13.60;99.90;;;;;;5072103;28;20033;-62
2023/03/24 10:01:15;;;;;;;9.68;2.00;;;13.70;99.90;;;;;;5073602;28;20041;-62
2023/03/24 10:03:42;;;;;;;8.57;2.58;;;13.80;99.90;;;;;;5074426;28;20128;-62
2023/03/24 10:06:08;;;;;;;17.38;2.67;;;13.90;99.90;;;;;;5072497;28;20029;-62
2023/03/24 10:08:38;;;;;;;8.98;2.00;;;14.10;99.90;;;;;;5071753;28;20036;-62
2023/03/24 10:11:09;;;;;;;12.47;2.50;;;14.20;99.90;;;;;;5072549;28;20083;-62
2023/03/24 10:13:47;;;;;;;12.00;2.85;;;14.30;99.90;;;;;;5074278;28;20102;-61
2023/03/24 10:16:35;;;;;;;14.10;2.50;;;14.20;99.90;;;;;;5074234;28;20442;-61
2023/03/24 10:19:16;;;;;;;15.85;2.92;;;14.10;99.90;;;;;;5074236;28;20418;-61
2023/03/24 10:21:53;;;;;;;14.80;2.53;;;14.00;99.90;;;;;;5071193;28;20552;-62
2023/03/24 10:24:30;;;;;;;13.35;2.53;;;14.00;99.90;;;;;;5073002;28;20068;-61
2023/03/24 10:27:12;;;;;;;11.70;2.20;;;14.00;99.90;;;;;;5073677;28;20040;-61
2023/03/24 10:29:39;;;;;;;10.57;2.00;;;14.10;99.90;;;;;;5073911;28;20494;-61
2023/03/24 10:32:25;;;;;;;11.45;2.22;;;14.10;99.90;;;;;;5073575;28;20044;-61
2023/03/24 10:35:06;;;;;;;14.38;2.45;;;14.30;99.90;;;;;;5072479;28;20486;-61
2023/03/24 10:37:32;;;;;;;13.27;2.42;;;14.30;99.90;;;;;;5072389;28;20040;-61
2023/03/24 10:39:59;;;;;;;9.05;2.17;;;14.40;99.90;;;;;;5073775;28;20494;-61
2023/03/24 10:42:27;;;;;;;10.65;2.47;;;14.30;99.90;;;;;;5072445;28;20045;-61
2023/03/24 10:44:53;;;;;;;8.95;1.88;;;14.20;99.90;;;;;;5073732;28;20081;-61
2023/03/24 10:47:25;;;;;;;8.15;2.00;;;14.00;99.90;;;;;;5073139;28;20044;-61
2023/03/24 10:49:59;;;;;;;6.97;2.00;;;13.90;99.90;;;;;;5071532;28;20565;-61
2023/03/24 10:52:26;;;;;;;11.55;3.05;;;13.70;99.90;;;;;;5071448;28;20064;-61
2023/03/24 10:55:03;;;;;;;6.80;1.58;;;13.60;99.90;;;;;;5072699;28;20043;-62
2023/03/24 10:57:29;;;;;;;10.90;1.80;;;13.40;99.90;;;;;;5072142;28;20044;-61
2023/03/24 11:00:08;;;;;;;11.50;2.08;;;13.50;99.90;;;;;;5073203;28;20075;-62
2023/03/24 11:02:36;;;;;;;8.90;2.10;;;13.60;99.90;;;;;;5071469;28;20107;-62
2023/03/24 11:07:48;;;;;;;6.25;1.67;;;13.60;99.90;;;;;;5068519;28;20452;-64
2023/03/24 11:10:17;;;;;;;8.32;1.85;;;13.50;99.90;;;;;;5073261;28;20040;-64
2023/03/24 11:13:01;;;;;;;12.73;2.15;;;13.50;99.90;;;;;;5072671;28;20078;-64
2023/03/24 11:15:35;;;;;;;12.48;2.33;;;13.50;99.90;;;;;;5073154;28;20033;-64
2023/03/24 11:18:21;;;;;;;11.80;2.20;;;13.40;99.90;;;;;;5071320;28;20498;-65
2023/03/24 11:20:50;;;;;;;10.27;1.83;;;13.20;99.90;;;;;;5062198;28;20074;-64
2023/03/24 11:23:29;;;;;;;9.63;1.80;;;13.10;99.90;;;;;;5072286;28;20079;-64
2023/03/24 11:26:33;;;;;;;8.45;1.95;;;13.10;99.90;;;;;;5071365;28;20040;-64
2023/03/24 11:29:12;;;;;;;7.47;1.80;;;13.30;99.90;;;;;;5072710;28;20040;-64
2023/03/24 11:31:39;;;;;;;7.45;2.05;;;13.50;99.90;;;;;;5072642;28;20030;-64
2023/03/24 11:34:23;;;;;;;7.22;2.03;;;13.80;99.90;;;;;;5070712;28;20052;-64
2023/03/24 11:37:19;;;;;;;6.75;1.52;;;14.00;99.90;;;;;;5064923;28;20040;-64
2023/03/24 11:40:13;;;;;;;8.40;2.30;;;14.20;99.90;;;;;;5065577;28;20032;-64
2023/03/24 11:42:57;;;;;;;7.82;1.55;;;14.40;99.90;;;;;;5072315;28;20123;-65
2023/03/24 11:45:40;;;;;;;13.32;2.00;;;14.60;99.90;;;;;;5072478;28;20482;-64
2023/03/24 11:48:27;;;;;;;9.63;2.25;;;14.60;99.90;;;;;;5066844;28;20526;-64
2023/03/24 11:50:55;;;;;;;8.80;2.35;;;14.80;99.90;;;;;;5065112;28;20052;-64
2023/03/24 11:53:26;;;;;;;12.20;1.70;;;14.90;99.90;;;;;;5067467;28;20115;-64
2023/03/24 11:56:06;;;;;;;9.18;1.98;;;15.00;99.90;;;;;;5072159;28;20748;-64
2023/03/24 11:58:50;;;;;;;11.30;2.35;;;15.10;99.90;;;;;;5071039;28;20052;-64
2023/03/24 12:01:25;;;;;;;10.80;2.35;;;15.20;99.90;;;;;;5069889;28;20040;-65
2023/03/24 12:04:09;;;;;;;7.25;2.00;;;15.30;99.90;;;;;;5071551;28;20053;-64
2023/03/24 12:07:00;;;;;;;12.95;2.03;;;15.40;99.90;;;;;;5071791;28;20501;-64
2023/03/24 12:09:42;;;;;;;7.22;1.98;;;15.40;99.90;;;;;;5065262;28;20087;-64
2023/03/24 12:12:35;;;;;;;11.50;2.60;;;15.50;99.90;;;;;;5071753;28;20036;-63
2023/03/24 12:15:12;;;;;;;11.50;2.17;;;15.50;99.90;;;;;;5072101;28;20052;-64
2023/03/24 12:18:08;;;;;;;12.93;2.53;;;15.60;99.90;;;;;;5070202;28;20059;-65
2023/03/24 12:20:46;;;;;;;9.55;2.25;;;15.70;99.90;;;;;;5071832;28;20055;-64
2023/03/24 12:23:24;;;;;;;8.95;2.10;;;15.70;99.90;;;;;;5071214;28;20040;-64
2023/03/24 12:26:34;;;;;;;8.25;1.77;;;15.70;99.90;;;;;;5071954;28;20048;-65
2023/03/24 12:29:25;;;;;;;11.52;1.50;;;15.70;97.60;;;;;;5037681;28;20598;-65
2023/03/24 12:32:18;;;;;;;7.15;1.77;;;15.60;96.80;;;;;;5070282;28;20449;-66
2023/03/24 12:35:10;;;;;;;6.63;1.65;;;15.60;94.50;;;;;;5051572;28;20524;-65
2023/03/24 12:37:58;;;;;;;7.47;1.85;;;15.70;96.30;;;;;;5068260;28;20043;-66
2023/03/24 12:40:39;;;;;;;8.32;1.73;;;15.70;92.30;;;;;;5071594;28;20506;-66
2023/03/24 12:43:04;;;;;;;7.65;1.83;;;15.60;93.10;;;;;;5071748;28;20044;-66
2023/03/24 12:45:52;;;;;;;8.20;1.73;;;15.50;95.30;;;;;;5070227;28;20052;-66
2023/03/24 12:48:40;;;;;;;12.05;1.77;;;15.50;94.60;;;;;;5068863;28;20399;-65
2023/03/24 12:51:28;;;;;;;7.72;1.73;;;15.60;96.00;;;;;;5070477;28;20595;-65
2023/03/24 12:54:04;;;;;;;9.50;1.70;;;15.60;96.40;;;;;;5065612;28;20046;-65
2023/03/24 12:56:35;;;;;;;8.07;2.05;;;15.60;94.70;;;;;;5070195;28;20040;-65
2023/03/24 12:59:14;;;;;;;8.43;1.75;;;15.60;95.10;;;;;;5068379;28;20046;-66
2023/03/24 13:01:47;;;;;;;12.10;2.03;;;15.60;95.90;;;;;;5063534;28;20036;-65
2023/03/24 13:04:28;;;;;;;9.10;2.03;;;15.60;97.60;;;;;;5070653;28;20068;-66
2023/03/24 13:07:05;;;;;;;8.95;1.92;;;15.50;97.80;;;;;;5067656;28;20040;-66
2023/03/24 13:09:55;;;;;;;11.25;2.45;;;15.50;97.10;;;;;;5071131;28;20124;-66
2023/03/24 13:12:39;;;;;;;10.67;1.67;;;15.40;97.90;;;;;;5071200;28;20036;-66